Startpagina
METAR-TAF:

METAR-TAF

Vliegvelden :

Flughafen Bern-Belp

Bern, Zwitserland

breedte: 46-55N, lengte: 007-30E, hoogte: 505 m

Actueel weer

Dit bericht is 40 minuten geleden gemaakt, om 13:20 UTC
Wind 3 kt uit variabele richting
Temperatuur 21°C
Vochtigheid 33%
Druk 1022 hPa
Zicht 10 km of meer
geen wolken onder 1500 m en geen cumulonimbus

METAR: LSZB 101320Z VRB03KT CAVOK 21/04 Q1022 NOSIG

Tijdstip: 16:00 (14:00 UTC)

Verwachting

Dit bericht is 2 uur en het 35 minuten geleden gemaakt, om 11:25 UTC
Verwachting geldig van 10 om 12 UTC tot 10 om 21 UTC
Wind 4 kt uit het westnoordwesten
Zicht 10 km of meer
geen wolken onder 1500 m en geen cumulonimbus

TAF: LSZB 101125Z 1012/1021 29004KT CAVOK

Waarnemingen en weersverwachtingen van meer dan 4000 vliegvelden (METAR en TAF).

De beschikbare stations zijn de gele en rode punten op de kaart.

Ga met uw muis naar het station om de naam te zien.

Klik dan om waarnemingen en weersverwachtingen te zien.

kaart wijzigen: klik op de groene knoppen met een zwart kruis om in te zoomen, op de groene knop met een streepje om uit te zoomen of op de groene pijlen voor aangrenzende kaarten.


METAR-TAF: